sensor_id;sensor_type;location;lat;lon;timestamp;temperature;humidity
13806;DHT22;6974;53.606;9.872;2022-09-29T00:00:13;8.80;99.90
13806;DHT22;6974;53.606;9.872;2022-09-29T00:02:40;8.70;99.90
13806;DHT22;6974;53.606;9.872;2022-09-29T00:05:07;8.70;99.90
13806;DHT22;6974;53.606;9.872;2022-09-29T00:07:35;8.70;99.90
13806;DHT22;6974;53.606;9.872;2022-09-29T00:10:03;8.70;99.90
13806;DHT22;6974;53.606;9.872;2022-09-29T00:12:30;8.70;99.90
13806;DHT22;6974;53.606;9.872;2022-09-29T00:14:57;8.70;99.90
13806;DHT22;6974;53.606;9.872;2022-09-29T00:17:24;8.60;99.90
13806;DHT22;6974;53.606;9.872;2022-09-29T00:19:51;8.60;99.90
13806;DHT22;6974;53.606;9.872;2022-09-29T00:22:19;8.60;99.90
13806;DHT22;6974;53.606;9.872;2022-09-29T00:24:47;8.60;99.90
13806;DHT22;6974;53.606;9.872;2022-09-29T00:27:14;8.60;99.90
13806;DHT22;6974;53.606;9.872;2022-09-29T00:29:41;8.60;99.90
13806;DHT22;6974;53.606;9.872;2022-09-29T00:32:08;8.60;99.90
13806;DHT22;6974;53.606;9.872;2022-09-29T00:34:35;8.50;99.90
13806;DHT22;6974;53.606;9.872;2022-09-29T00:37:03;8.40;99.90
13806;DHT22;6974;53.606;9.872;2022-09-29T00:39:30;8.50;99.90
13806;DHT22;6974;53.606;9.872;2022-09-29T00:42:00;8.50;99.90
13806;DHT22;6974;53.606;9.872;2022-09-29T00:45:01;8.50;99.90
13806;DHT22;6974;53.606;9.872;2022-09-29T00:47:30;8.40;99.90
13806;DHT22;6974;53.606;9.872;2022-09-29T00:50:02;8.40;99.90
13806;DHT22;6974;53.606;9.872;2022-09-29T00:52:33;8.40;99.90
13806;DHT22;6974;53.606;9.872;2022-09-29T00:55:05;8.40;99.90
13806;DHT22;6974;53.606;9.872;2022-09-29T00:57:37;8.40;99.90
13806;DHT22;6974;53.606;9.872;2022-09-29T01:00:06;8.40;99.90
13806;DHT22;6974;53.606;9.872;2022-09-29T01:02:36;8.40;99.90
13806;DHT22;6974;53.606;9.872;2022-09-29T01:05:07;8.40;99.90
13806;DHT22;6974;53.606;9.872;2022-09-29T01:07:35;8.40;99.90
13806;DHT22;6974;53.606;9.872;2022-09-29T01:10:02;8.40;99.90
13806;DHT22;6974;53.606;9.872;2022-09-29T01:12:29;8.40;99.90
13806;DHT22;6974;53.606;9.872;2022-09-29T01:14:57;8.30;99.90
13806;DHT22;6974;53.606;9.872;2022-09-29T01:17:25;8.30;99.90
13806;DHT22;6974;53.606;9.872;2022-09-29T01:19:59;8.30;99.90
13806;DHT22;6974;53.606;9.872;2022-09-29T01:25:47;8.40;99.90
13806;DHT22;6974;53.606;9.872;2022-09-29T01:31:32;8.30;99.90
13806;DHT22;6974;53.606;9.872;2022-09-29T01:34:06;8.30;99.90
13806;DHT22;6974;53.606;9.872;2022-09-29T01:36:46;8.30;99.90
13806;DHT22;6974;53.606;9.872;2022-09-29T01:39:21;8.30;99.90
13806;DHT22;6974;53.606;9.872;2022-09-29T01:41:55;8.30;99.90
13806;DHT22;6974;53.606;9.872;2022-09-29T01:44:26;8.30;99.90
13806;DHT22;6974;53.606;9.872;2022-09-29T01:46:58;8.30;99.90
13806;DHT22;6974;53.606;9.872;2022-09-29T01:49:30;8.30;99.90
13806;DHT22;6974;53.606;9.872;2022-09-29T01:52:01;8.30;99.90
13806;DHT22;6974;53.606;9.872;2022-09-29T01:54:33;8.20;99.90
13806;DHT22;6974;53.606;9.872;2022-09-29T01:57:07;8.20;99.90
13806;DHT22;6974;53.606;9.872;2022-09-29T01:59:39;8.20;99.90
13806;DHT22;6974;53.606;9.872;2022-09-29T02:02:12;8.20;99.90
13806;DHT22;6974;53.606;9.872;2022-09-29T02:04:44;8.20;99.90
13806;DHT22;6974;53.606;9.872;2022-09-29T02:07:16;8.20;99.90
13806;DHT22;6974;53.606;9.872;2022-09-29T02:09:49;8.20;99.90
13806;DHT22;6974;53.606;9.872;2022-09-29T02:12:22;8.20;99.90
13806;DHT22;6974;53.606;9.872;2022-09-29T02:14:52;8.20;99.90
13806;DHT22;6974;53.606;9.872;2022-09-29T02:17:23;8.30;99.90
13806;DHT22;6974;53.606;9.872;2022-09-29T02:19:52;8.30;99.90
13806;DHT22;6974;53.606;9.872;2022-09-29T02:22:19;8.30;99.90
13806;DHT22;6974;53.606;9.872;2022-09-29T02:24:47;8.20;99.90
13806;DHT22;6974;53.606;9.872;2022-09-29T02:27:15;8.20;99.90
13806;DHT22;6974;53.606;9.872;2022-09-29T02:29:42;8.20;99.90
13806;DHT22;6974;53.606;9.872;2022-09-29T02:32:10;8.20;99.90
13806;DHT22;6974;53.606;9.872;2022-09-29T02:34:41;8.20;99.90
13806;DHT22;6974;53.606;9.872;2022-09-29T02:37:24;8.10;99.90
13806;DHT22;6974;53.606;9.872;2022-09-29T02:39:59;8.20;99.90
13806;DHT22;6974;53.606;9.872;2022-09-29T02:42:33;8.10;99.90
13806;DHT22;6974;53.606;9.872;2022-09-29T02:45:15;8.10;99.90
13806;DHT22;6974;53.606;9.872;2022-09-29T02:47:52;8.10;99.90
13806;DHT22;6974;53.606;9.872;2022-09-29T02:50:38;8.00;99.90
13806;DHT22;6974;53.606;9.872;2022-09-29T02:53:17;8.10;99.90
13806;DHT22;6974;53.606;9.872;2022-09-29T02:55:55;8.00;99.90
13806;DHT22;6974;53.606;9.872;2022-09-29T02:58:27;8.10;99.90
13806;DHT22;6974;53.606;9.872;2022-09-29T03:00:57;8.10;99.90
13806;DHT22;6974;53.606;9.872;2022-09-29T03:03:24;8.10;99.90
13806;DHT22;6974;53.606;9.872;2022-09-29T03:05:52;8.00;99.90
13806;DHT22;6974;53.606;9.872;2022-09-29T03:08:19;8.00;99.90
13806;DHT22;6974;53.606;9.872;2022-09-29T03:10:46;8.00;99.90
13806;DHT22;6974;53.606;9.872;2022-09-29T03:13:13;7.90;99.90
13806;DHT22;6974;53.606;9.872;2022-09-29T03:15:40;8.00;99.90
13806;DHT22;6974;53.606;9.872;2022-09-29T03:18:06;7.90;99.90
13806;DHT22;6974;53.606;9.872;2022-09-29T03:20:33;8.00;99.90
13806;DHT22;6974;53.606;9.872;2022-09-29T03:23:01;8.00;99.90
13806;DHT22;6974;53.606;9.872;2022-09-29T03:25:28;8.00;99.90
13806;DHT22;6974;53.606;9.872;2022-09-29T03:27:55;8.00;99.90
13806;DHT22;6974;53.606;9.872;2022-09-29T03:30:22;7.90;99.90
13806;DHT22;6974;53.606;9.872;2022-09-29T03:32:49;7.90;99.90
13806;DHT22;6974;53.606;9.872;2022-09-29T03:35:15;7.90;99.90
13806;DHT22;6974;53.606;9.872;2022-09-29T03:37:42;8.00;99.90
13806;DHT22;6974;53.606;9.872;2022-09-29T03:40:11;8.00;99.90
13806;DHT22;6974;53.606;9.872;2022-09-29T03:42:37;8.00;99.90
13806;DHT22;6974;53.606;9.872;2022-09-29T03:45:05;8.00;99.90
13806;DHT22;6974;53.606;9.872;2022-09-29T03:47:32;7.90;99.90
13806;DHT22;6974;53.606;9.872;2022-09-29T03:49:59;7.90;99.90
13806;DHT22;6974;53.606;9.872;2022-09-29T03:52:26;8.00;99.90
13806;DHT22;6974;53.606;9.872;2022-09-29T03:54:52;8.00;99.90
13806;DHT22;6974;53.606;9.872;2022-09-29T03:57:21;8.00;99.90
13806;DHT22;6974;53.606;9.872;2022-09-29T03:59:47;8.00;99.90
13806;DHT22;6974;53.606;9.872;2022-09-29T04:02:14;8.00;99.90
13806;DHT22;6974;53.606;9.872;2022-09-29T04:04:42;8.00;99.90
13806;DHT22;6974;53.606;9.872;2022-09-29T04:07:09;8.00;99.90
13806;DHT22;6974;53.606;9.872;2022-09-29T04:09:36;8.00;99.90
13806;DHT22;6974;53.606;9.872;2022-09-29T04:12:04;7.90;99.90
13806;DHT22;6974;53.606;9.872;2022-09-29T04:14:33;7.90;99.90
13806;DHT22;6974;53.606;9.872;2022-09-29T04:16:59;7.90;99.90
13806;DHT22;6974;53.606;9.872;2022-09-29T04:19:26;7.90;99.90
13806;DHT22;6974;53.606;9.872;2022-09-29T04:21:53;7.80;99.90
13806;DHT22;6974;53.606;9.872;2022-09-29T04:24:20;7.90;99.90
13806;DHT22;6974;53.606;9.872;2022-09-29T04:26:47;8.00;99.90
13806;DHT22;6974;53.606;9.872;2022-09-29T04:29:14;8.00;99.90
13806;DHT22;6974;53.606;9.872;2022-09-29T04:31:42;8.00;99.90
13806;DHT22;6974;53.606;9.872;2022-09-29T04:34:09;8.00;99.90
13806;DHT22;6974;53.606;9.872;2022-09-29T04:36:35;7.90;99.90
13806;DHT22;6974;53.606;9.872;2022-09-29T04:39:02;8.00;99.90
13806;DHT22;6974;53.606;9.872;2022-09-29T04:41:29;7.90;99.90
13806;DHT22;6974;53.606;9.872;2022-09-29T04:43:59;7.90;99.90
13806;DHT22;6974;53.606;9.872;2022-09-29T04:46:27;7.90;99.90
13806;DHT22;6974;53.606;9.872;2022-09-29T04:48:55;7.90;99.90
13806;DHT22;6974;53.606;9.872;2022-09-29T04:51:22;8.00;99.90
13806;DHT22;6974;53.606;9.872;2022-09-29T04:53:49;8.10;99.90
13806;DHT22;6974;53.606;9.872;2022-09-29T04:56:17;8.10;99.90
13806;DHT22;6974;53.606;9.872;2022-09-29T04:58:44;8.20;99.90
13806;DHT22;6974;53.606;9.872;2022-09-29T05:01:11;8.30;99.90
13806;DHT22;6974;53.606;9.872;2022-09-29T05:03:39;8.20;99.90
13806;DHT22;6974;53.606;9.872;2022-09-29T05:06:07;8.30;99.90
13806;DHT22;6974;53.606;9.872;2022-09-29T05:08:34;8.30;99.90
13806;DHT22;6974;53.606;9.872;2022-09-29T05:11:03;8.30;99.90
13806;DHT22;6974;53.606;9.872;2022-09-29T05:13:31;8.30;99.90
13806;DHT22;6974;53.606;9.872;2022-09-29T05:15:57;8.20;99.90
13806;DHT22;6974;53.606;9.872;2022-09-29T05:18:24;8.30;99.90
13806;DHT22;6974;53.606;9.872;2022-09-29T05:20:51;8.40;99.90
13806;DHT22;6974;53.606;9.872;2022-09-29T05:23:19;8.40;99.90
13806;DHT22;6974;53.606;9.872;2022-09-29T05:25:46;8.40;99.90
13806;DHT22;6974;53.606;9.872;2022-09-29T05:28:13;8.40;99.90
13806;DHT22;6974;53.606;9.872;2022-09-29T05:30:40;8.30;99.90
13806;DHT22;6974;53.606;9.872;2022-09-29T05:33:08;8.30;99.90
13806;DHT22;6974;53.606;9.872;2022-09-29T05:35:35;8.40;99.90
13806;DHT22;6974;53.606;9.872;2022-09-29T05:38:02;8.40;99.90
13806;DHT22;6974;53.606;9.872;2022-09-29T05:40:30;8.50;99.90
13806;DHT22;6974;53.606;9.872;2022-09-29T05:42:58;8.60;99.90
13806;DHT22;6974;53.606;9.872;2022-09-29T05:45:25;8.60;99.90
13806;DHT22;6974;53.606;9.872;2022-09-29T05:47:52;8.60;99.90
13806;DHT22;6974;53.606;9.872;2022-09-29T05:50:19;8.60;99.90
13806;DHT22;6974;53.606;9.872;2022-09-29T05:52:46;8.60;99.90
13806;DHT22;6974;53.606;9.872;2022-09-29T05:55:14;8.60;99.90
13806;DHT22;6974;53.606;9.872;2022-09-29T05:57:44;8.60;99.90
13806;DHT22;6974;53.606;9.872;2022-09-29T06:00:13;8.70;99.90
13806;DHT22;6974;53.606;9.872;2022-09-29T06:02:39;8.70;99.90
13806;DHT22;6974;53.606;9.872;2022-09-29T06:05:06;8.70;99.90
13806;DHT22;6974;53.606;9.872;2022-09-29T06:07:33;8.80;99.90
13806;DHT22;6974;53.606;9.872;2022-09-29T06:10:00;8.80;99.90
13806;DHT22;6974;53.606;9.872;2022-09-29T06:12:27;8.80;99.90
13806;DHT22;6974;53.606;9.872;2022-09-29T06:14:55;8.80;99.90
13806;DHT22;6974;53.606;9.872;2022-09-29T06:17:21;8.90;99.90
13806;DHT22;6974;53.606;9.872;2022-09-29T06:19:48;8.90;99.90
13806;DHT22;6974;53.606;9.872;2022-09-29T06:22:15;8.90;99.90
13806;DHT22;6974;53.606;9.872;2022-09-29T06:24:42;9.00;99.90
13806;DHT22;6974;53.606;9.872;2022-09-29T06:27:09;9.10;99.90
13806;DHT22;6974;53.606;9.872;2022-09-29T06:29:36;9.20;99.90
13806;DHT22;6974;53.606;9.872;2022-09-29T06:32:04;9.20;99.90
13806;DHT22;6974;53.606;9.872;2022-09-29T06:34:30;9.20;99.90
13806;DHT22;6974;53.606;9.872;2022-09-29T06:36:57;9.30;99.90
13806;DHT22;6974;53.606;9.872;2022-09-29T06:39:41;9.30;99.90
13806;DHT22;6974;53.606;9.872;2022-09-29T06:42:08;9.40;99.90
13806;DHT22;6974;53.606;9.872;2022-09-29T06:44:36;9.40;99.90
13806;DHT22;6974;53.606;9.872;2022-09-29T06:47:04;9.40;99.90
13806;DHT22;6974;53.606;9.872;2022-09-29T06:49:31;9.40;99.90
13806;DHT22;6974;53.606;9.872;2022-09-29T06:51:57;9.40;99.90
13806;DHT22;6974;53.606;9.872;2022-09-29T06:54:24;9.50;99.90
13806;DHT22;6974;53.606;9.872;2022-09-29T06:56:52;9.50;99.90
13806;DHT22;6974;53.606;9.872;2022-09-29T06:59:19;9.60;99.90
13806;DHT22;6974;53.606;9.872;2022-09-29T07:01:46;9.60;99.90
13806;DHT22;6974;53.606;9.872;2022-09-29T07:04:16;9.60;99.90
13806;DHT22;6974;53.606;9.872;2022-09-29T07:06:43;9.60;99.90
13806;DHT22;6974;53.606;9.872;2022-09-29T07:09:11;9.60;99.90
13806;DHT22;6974;53.606;9.872;2022-09-29T07:11:41;9.70;99.90
13806;DHT22;6974;53.606;9.872;2022-09-29T07:14:11;9.70;99.90
13806;DHT22;6974;53.606;9.872;2022-09-29T07:16:37;9.70;99.90
13806;DHT22;6974;53.606;9.872;2022-09-29T07:19:04;9.70;99.90
13806;DHT22;6974;53.606;9.872;2022-09-29T07:21:33;9.80;99.90
13806;DHT22;6974;53.606;9.872;2022-09-29T07:24:00;9.80;99.90
13806;DHT22;6974;53.606;9.872;2022-09-29T07:26:27;9.80;99.90
13806;DHT22;6974;53.606;9.872;2022-09-29T07:28:54;9.80;99.90
13806;DHT22;6974;53.606;9.872;2022-09-29T07:31:21;9.80;99.90
13806;DHT22;6974;53.606;9.872;2022-09-29T07:33:49;9.90;99.90
13806;DHT22;6974;53.606;9.872;2022-09-29T07:36:19;9.90;99.90
13806;DHT22;6974;53.606;9.872;2022-09-29T07:38:49;9.90;99.90
13806;DHT22;6974;53.606;9.872;2022-09-29T07:41:17;10.00;99.90
13806;DHT22;6974;53.606;9.872;2022-09-29T07:43:44;10.00;99.90
13806;DHT22;6974;53.606;9.872;2022-09-29T07:46:11;10.10;99.90
13806;DHT22;6974;53.606;9.872;2022-09-29T07:48:38;10.10;99.90
13806;DHT22;6974;53.606;9.872;2022-09-29T07:51:07;10.10;99.90
13806;DHT22;6974;53.606;9.872;2022-09-29T07:53:35;10.20;99.90
13806;DHT22;6974;53.606;9.872;2022-09-29T07:56:05;10.20;99.90
13806;DHT22;6974;53.606;9.872;2022-09-29T07:58:32;10.20;99.90
13806;DHT22;6974;53.606;9.872;2022-09-29T08:01:00;10.20;99.90
13806;DHT22;6974;53.606;9.872;2022-09-29T08:03:28;10.20;99.90
13806;DHT22;6974;53.606;9.872;2022-09-29T08:05:55;10.20;99.90
13806;DHT22;6974;53.606;9.872;2022-09-29T08:08:23;10.30;99.90
13806;DHT22;6974;53.606;9.872;2022-09-29T08:10:50;10.30;99.90
13806;DHT22;6974;53.606;9.872;2022-09-29T08:13:18;10.40;99.90
13806;DHT22;6974;53.606;9.872;2022-09-29T08:15:45;10.40;99.90
13806;DHT22;6974;53.606;9.872;2022-09-29T08:18:12;10.40;99.90
13806;DHT22;6974;53.606;9.872;2022-09-29T08:20:38;10.50;99.90
13806;DHT22;6974;53.606;9.872;2022-09-29T08:23:05;10.50;99.90
13806;DHT22;6974;53.606;9.872;2022-09-29T08:25:32;10.60;99.90
13806;DHT22;6974;53.606;9.872;2022-09-29T08:28:00;10.60;99.90
13806;DHT22;6974;53.606;9.872;2022-09-29T08:30:28;10.70;99.90
13806;DHT22;6974;53.606;9.872;2022-09-29T08:32:55;10.80;99.90
13806;DHT22;6974;53.606;9.872;2022-09-29T08:35:22;10.80;99.90
13806;DHT22;6974;53.606;9.872;2022-09-29T08:37:49;10.80;99.90
13806;DHT22;6974;53.606;9.872;2022-09-29T08:40:17;10.90;99.90
13806;DHT22;6974;53.606;9.872;2022-09-29T08:42:50;10.90;99.90
13806;DHT22;6974;53.606;9.872;2022-09-29T08:45:25;11.00;99.90
13806;DHT22;6974;53.606;9.872;2022-09-29T08:47:59;11.00;99.90
13806;DHT22;6974;53.606;9.872;2022-09-29T08:50:31;11.00;99.90
13806;DHT22;6974;53.606;9.872;2022-09-29T08:53:04;11.00;99.90
13806;DHT22;6974;53.606;9.872;2022-09-29T08:55:37;11.10;99.90
13806;DHT22;6974;53.606;9.872;2022-09-29T08:58:10;11.10;99.90
13806;DHT22;6974;53.606;9.872;2022-09-29T09:00:42;11.20;99.90
13806;DHT22;6974;53.606;9.872;2022-09-29T09:03:22;11.30;99.90
13806;DHT22;6974;53.606;9.872;2022-09-29T09:06:20;11.30;99.90
13806;DHT22;6974;53.606;9.872;2022-09-29T09:09:12;11.30;99.90
13806;DHT22;6974;53.606;9.872;2022-09-29T09:11:52;11.40;99.90
13806;DHT22;6974;53.606;9.872;2022-09-29T09:14:30;11.50;99.90
13806;DHT22;6974;53.606;9.872;2022-09-29T09:17:08;11.50;99.90
13806;DHT22;6974;53.606;9.872;2022-09-29T09:20:08;11.60;99.90
13806;DHT22;6974;53.606;9.872;2022-09-29T09:22:41;11.60;99.90
13806;DHT22;6974;53.606;9.872;2022-09-29T09:25:18;11.70;99.90
13806;DHT22;6974;53.606;9.872;2022-09-29T09:27:52;11.70;99.90
13806;DHT22;6974;53.606;9.872;2022-09-29T09:30:22;11.80;99.90
13806;DHT22;6974;53.606;9.872;2022-09-29T09:32:52;11.80;99.90
13806;DHT22;6974;53.606;9.872;2022-09-29T09:35:29;11.90;99.90
13806;DHT22;6974;53.606;9.872;2022-09-29T09:37:59;11.90;99.90
13806;DHT22;6974;53.606;9.872;2022-09-29T09:40:35;12.00;99.90
13806;DHT22;6974;53.606;9.872;2022-09-29T09:43:05;12.10;99.90
13806;DHT22;6974;53.606;9.872;2022-09-29T09:45:38;12.10;99.90
13806;DHT22;6974;53.606;9.872;2022-09-29T09:48:12;12.20;99.90
13806;DHT22;6974;53.606;9.872;2022-09-29T09:50:42;12.30;99.90
13806;DHT22;6974;53.606;9.872;2022-09-29T09:53:14;12.40;99.90
13806;DHT22;6974;53.606;9.872;2022-09-29T09:55:55;12.40;99.90
13806;DHT22;6974;53.606;9.872;2022-09-29T09:58:51;12.50;99.90
13806;DHT22;6974;53.606;9.872;2022-09-29T10:01:21;12.60;99.90
13806;DHT22;6974;53.606;9.872;2022-09-29T10:03:47;12.70;99.90
13806;DHT22;6974;53.606;9.872;2022-09-29T10:06:16;12.70;99.90
13806;DHT22;6974;53.606;9.872;2022-09-29T10:08:42;12.80;99.90
13806;DHT22;6974;53.606;9.872;2022-09-29T10:11:23;12.70;99.90
13806;DHT22;6974;53.606;9.872;2022-09-29T10:13:57;12.70;99.90
13806;DHT22;6974;53.606;9.872;2022-09-29T10:16:27;12.70;99.90
13806;DHT22;6974;53.606;9.872;2022-09-29T10:18:57;12.70;99.90
13806;DHT22;6974;53.606;9.872;2022-09-29T10:21:36;12.60;99.90
13806;DHT22;6974;53.606;9.872;2022-09-29T10:24:04;12.60;99.90
13806;DHT22;6974;53.606;9.872;2022-09-29T10:26:36;12.50;99.90
13806;DHT22;6974;53.606;9.872;2022-09-29T10:29:18;12.50;99.90
13806;DHT22;6974;53.606;9.872;2022-09-29T10:31:58;12.60;99.90
13806;DHT22;6974;53.606;9.872;2022-09-29T10:34:26;12.50;99.90
13806;DHT22;6974;53.606;9.872;2022-09-29T10:36:56;12.60;99.90
13806;DHT22;6974;53.606;9.872;2022-09-29T10:39:32;12.60;99.90
13806;DHT22;6974;53.606;9.872;2022-09-29T10:41:59;12.60;99.90
13806;DHT22;6974;53.606;9.872;2022-09-29T10:44:30;12.60;99.90
13806;DHT22;6974;53.606;9.872;2022-09-29T10:46:57;12.60;99.90
13806;DHT22;6974;53.606;9.872;2022-09-29T10:49:25;12.60;99.90
13806;DHT22;6974;53.606;9.872;2022-09-29T10:51:58;12.50;99.90
13806;DHT22;6974;53.606;9.872;2022-09-29T10:54:28;12.50;99.90
13806;DHT22;6974;53.606;9.872;2022-09-29T10:56:57;12.50;99.90
13806;DHT22;6974;53.606;9.872;2022-09-29T10:59:24;12.50;99.90
13806;DHT22;6974;53.606;9.872;2022-09-29T11:01:54;12.50;99.90
13806;DHT22;6974;53.606;9.872;2022-09-29T11:04:24;12.50;99.90
13806;DHT22;6974;53.606;9.872;2022-09-29T11:06:52;12.50;99.90
13806;DHT22;6974;53.606;9.872;2022-09-29T11:09:29;12.60;99.90
13806;DHT22;6974;53.606;9.872;2022-09-29T11:11:57;12.60;99.90
13806;DHT22;6974;53.606;9.872;2022-09-29T11:14:25;12.60;99.90
13806;DHT22;6974;53.606;9.872;2022-09-29T11:16:54;12.60;99.90
13806;DHT22;6974;53.606;9.872;2022-09-29T11:19:22;12.60;99.90
13806;DHT22;6974;53.606;9.872;2022-09-29T11:22:12;12.60;99.90
13806;DHT22;6974;53.606;9.872;2022-09-29T11:25:14;12.70;99.90
13806;DHT22;6974;53.606;9.872;2022-09-29T11:28:05;12.70;99.90
13806;DHT22;6974;53.606;9.872;2022-09-29T11:30:48;12.70;99.90
13806;DHT22;6974;53.606;9.872;2022-09-29T11:33:26;12.70;99.90
13806;DHT22;6974;53.606;9.872;2022-09-29T11:35:59;12.70;99.90
13806;DHT22;6974;53.606;9.872;2022-09-29T11:38:44;12.70;99.90
13806;DHT22;6974;53.606;9.872;2022-09-29T11:41:28;12.70;99.90
13806;DHT22;6974;53.606;9.872;2022-09-29T11:44:02;12.70;99.90
13806;DHT22;6974;53.606;9.872;2022-09-29T11:46:48;12.70;99.90
13806;DHT22;6974;53.606;9.872;2022-09-29T11:49:41;12.70;99.90
13806;DHT22;6974;53.606;9.872;2022-09-29T11:52:30;12.70;99.90
13806;DHT22;6974;53.606;9.872;2022-09-29T11:55:09;12.70;99.90
13806;DHT22;6974;53.606;9.872;2022-09-29T11:57:48;12.70;99.90
13806;DHT22;6974;53.606;9.872;2022-09-29T12:00:18;12.70;99.90
13806;DHT22;6974;53.606;9.872;2022-09-29T12:03:18;12.80;99.90
13806;DHT22;6974;53.606;9.872;2022-09-29T12:05:56;12.80;99.90
13806;DHT22;6974;53.606;9.872;2022-09-29T12:08:40;12.80;99.90
13806;DHT22;6974;53.606;9.872;2022-09-29T12:11:13;12.80;99.90
13806;DHT22;6974;53.606;9.872;2022-09-29T12:13:47;12.80;99.90
13806;DHT22;6974;53.606;9.872;2022-09-29T12:16:18;12.80;99.90
13806;DHT22;6974;53.606;9.872;2022-09-29T12:18:48;12.80;99.90
13806;DHT22;6974;53.606;9.872;2022-09-29T12:21:19;12.80;99.90
13806;DHT22;6974;53.606;9.872;2022-09-29T12:23:47;12.90;99.90
13806;DHT22;6974;53.606;9.872;2022-09-29T12:26:17;12.90;99.90
13806;DHT22;6974;53.606;9.872;2022-09-29T12:28:49;12.90;99.90
13806;DHT22;6974;53.606;9.872;2022-09-29T12:31:22;13.00;99.90
13806;DHT22;6974;53.606;9.872;2022-09-29T12:33:53;13.00;99.90
13806;DHT22;6974;53.606;9.872;2022-09-29T12:36:30;12.90;99.90
13806;DHT22;6974;53.606;9.872;2022-09-29T12:39:31;13.00;99.90
13806;DHT22;6974;53.606;9.872;2022-09-29T12:42:12;13.00;99.90
13806;DHT22;6974;53.606;9.872;2022-09-29T12:44:48;13.10;99.90
13806;DHT22;6974;53.606;9.872;2022-09-29T12:47:23;13.00;99.90
13806;DHT22;6974;53.606;9.872;2022-09-29T12:50:02;13.00;99.90
13806;DHT22;6974;53.606;9.872;2022-09-29T12:52:36;13.00;99.90
13806;DHT22;6974;53.606;9.872;2022-09-29T12:55:14;13.00;99.90
13806;DHT22;6974;53.606;9.872;2022-09-29T12:57:45;13.00;99.90
13806;DHT22;6974;53.606;9.872;2022-09-29T13:00:16;13.00;99.90
13806;DHT22;6974;53.606;9.872;2022-09-29T13:02:56;13.00;99.90
13806;DHT22;6974;53.606;9.872;2022-09-29T13:05:44;12.90;99.90
13806;DHT22;6974;53.606;9.872;2022-09-29T13:08:32;13.00;99.90
13806;DHT22;6974;53.606;9.872;2022-09-29T13:11:20;13.00;99.90
13806;DHT22;6974;53.606;9.872;2022-09-29T13:14:14;13.00;99.90
13806;DHT22;6974;53.606;9.872;2022-09-29T13:16:56;12.90;99.90
13806;DHT22;6974;53.606;9.872;2022-09-29T13:22:35;12.90;99.90
13806;DHT22;6974;53.606;9.872;2022-09-29T13:25:16;12.90;99.90
13806;DHT22;6974;53.606;9.872;2022-09-29T13:27:48;12.90;99.90
13806;DHT22;6974;53.606;9.872;2022-09-29T13:30:18;12.90;99.90
13806;DHT22;6974;53.606;9.872;2022-09-29T13:32:48;12.80;99.90
13806;DHT22;6974;53.606;9.872;2022-09-29T13:35:18;12.90;99.90
13806;DHT22;6974;53.606;9.872;2022-09-29T13:37:48;12.80;99.90
13806;DHT22;6974;53.606;9.872;2022-09-29T13:40:20;12.80;99.90
13806;DHT22;6974;53.606;9.872;2022-09-29T13:42:48;12.80;99.90
13806;DHT22;6974;53.606;9.872;2022-09-29T13:45:40;12.80;99.90
13806;DHT22;6974;53.606;9.872;2022-09-29T13:48:41;12.80;99.90
13806;DHT22;6974;53.606;9.872;2022-09-29T13:54:38;12.80;99.90
13806;DHT22;6974;53.606;9.872;2022-09-29T13:57:18;12.80;99.90
13806;DHT22;6974;53.606;9.872;2022-09-29T14:00:16;12.80;99.90
13806;DHT22;6974;53.606;9.872;2022-09-29T14:02:48;12.80;99.90
13806;DHT22;6974;53.606;9.872;2022-09-29T14:05:51;12.80;99.90
13806;DHT22;6974;53.606;9.872;2022-09-29T14:08:21;12.80;99.90
13806;DHT22;6974;53.606;9.872;2022-09-29T14:10:57;12.80;99.90
13806;DHT22;6974;53.606;9.872;2022-09-29T14:13:26;12.80;99.90
13806;DHT22;6974;53.606;9.872;2022-09-29T14:16:05;12.80;99.90
13806;DHT22;6974;53.606;9.872;2022-09-29T14:18:39;12.80;99.90
13806;DHT22;6974;53.606;9.872;2022-09-29T14:21:12;12.90;99.90
13806;DHT22;6974;53.606;9.872;2022-09-29T14:23:50;12.90;99.90
13806;DHT22;6974;53.606;9.872;2022-09-29T14:26:45;12.90;99.90
13806;DHT22;6974;53.606;9.872;2022-09-29T14:29:16;12.90;99.90
13806;DHT22;6974;53.606;9.872;2022-09-29T14:31:47;12.90;99.90
13806;DHT22;6974;53.606;9.872;2022-09-29T14:34:17;12.90;99.90
13806;DHT22;6974;53.606;9.872;2022-09-29T14:36:48;12.90;99.90
13806;DHT22;6974;53.606;9.872;2022-09-29T14:39:17;12.80;99.90
13806;DHT22;6974;53.606;9.872;2022-09-29T14:41:45;12.80;99.90
13806;DHT22;6974;53.606;9.872;2022-09-29T14:44:19;12.80;99.90
13806;DHT22;6974;53.606;9.872;2022-09-29T14:47:14;12.80;99.90
13806;DHT22;6974;53.606;9.872;2022-09-29T14:50:20;12.80;99.90
13806;DHT22;6974;53.606;9.872;2022-09-29T14:53:26;12.80;99.90
13806;DHT22;6974;53.606;9.872;2022-09-29T14:56:05;12.80;99.90
13806;DHT22;6974;53.606;9.872;2022-09-29T14:58:54;12.80;99.90
13806;DHT22;6974;53.606;9.872;2022-09-29T15:01:27;12.80;99.90
13806;DHT22;6974;53.606;9.872;2022-09-29T15:03:55;12.80;99.90
13806;DHT22;6974;53.606;9.872;2022-09-29T15:06:23;12.80;99.90
13806;DHT22;6974;53.606;9.872;2022-09-29T15:08:57;12.80;99.90
13806;DHT22;6974;53.606;9.872;2022-09-29T15:11:30;12.80;99.90
13806;DHT22;6974;53.606;9.872;2022-09-29T15:14:01;12.80;99.90
13806;DHT22;6974;53.606;9.872;2022-09-29T15:16:48;12.80;99.90
13806;DHT22;6974;53.606;9.872;2022-09-29T15:19:31;12.80;99.90
13806;DHT22;6974;53.606;9.872;2022-09-29T15:22:13;12.80;99.90
13806;DHT22;6974;53.606;9.872;2022-09-29T15:24:52;12.80;99.90
13806;DHT22;6974;53.606;9.872;2022-09-29T15:27:23;12.80;99.90
13806;DHT22;6974;53.606;9.872;2022-09-29T15:29:54;12.80;99.90
13806;DHT22;6974;53.606;9.872;2022-09-29T15:32:23;12.80;99.90
13806;DHT22;6974;53.606;9.872;2022-09-29T15:34:53;12.80;99.90
13806;DHT22;6974;53.606;9.872;2022-09-29T15:37:25;12.70;99.90
13806;DHT22;6974;53.606;9.872;2022-09-29T15:39:53;12.70;99.90
13806;DHT22;6974;53.606;9.872;2022-09-29T15:42:21;12.70;99.90
13806;DHT22;6974;53.606;9.872;2022-09-29T15:44:58;12.70;99.90
13806;DHT22;6974;53.606;9.872;2022-09-29T15:47:27;12.70;99.90
13806;DHT22;6974;53.606;9.872;2022-09-29T15:49:55;12.70;99.90
13806;DHT22;6974;53.606;9.872;2022-09-29T15:52:22;12.70;99.90
13806;DHT22;6974;53.606;9.872;2022-09-29T15:54:57;12.70;99.90
13806;DHT22;6974;53.606;9.872;2022-09-29T15:57:29;12.70;99.90
13806;DHT22;6974;53.606;9.872;2022-09-29T16:03:23;12.70;99.90
13806;DHT22;6974;53.606;9.872;2022-09-29T16:05:57;12.60;99.90
13806;DHT22;6974;53.606;9.872;2022-09-29T16:08:27;12.60;99.90
13806;DHT22;6974;53.606;9.872;2022-09-29T16:10:59;12.60;99.90
13806;DHT22;6974;53.606;9.872;2022-09-29T16:13:28;12.60;99.90
13806;DHT22;6974;53.606;9.872;2022-09-29T16:15:59;12.70;99.90
13806;DHT22;6974;53.606;9.872;2022-09-29T16:18:31;12.60;99.90
13806;DHT22;6974;53.606;9.872;2022-09-29T16:21:04;12.60;99.90
13806;DHT22;6974;53.606;9.872;2022-09-29T16:23:35;12.60;99.90
13806;DHT22;6974;53.606;9.872;2022-09-29T16:26:16;12.60;99.90
13806;DHT22;6974;53.606;9.872;2022-09-29T16:29:02;12.60;99.90
13806;DHT22;6974;53.606;9.872;2022-09-29T16:31:30;12.60;99.90
13806;DHT22;6974;53.606;9.872;2022-09-29T16:33:59;12.60;99.90
13806;DHT22;6974;53.606;9.872;2022-09-29T16:36:27;12.60;99.90
13806;DHT22;6974;53.606;9.872;2022-09-29T16:38:56;12.50;99.90